Time;durP1;ratioP1;P1;durP2;ratioP2;P2;SDS_P1;SDS_P2;PMS_P1;PMS_P2;Temp;Humidity;BMP_temperature;BMP_pressure;BME280_temperature;BME280_humidity;BME280_pressure;Samples;Min_cycle;Max_cycle;Signal;HPM_P1;HPM_P2
2023/05/10 00:02:16;;;;;;;4.00;2.78;;;13.70;94.50;;;;;;4973994;28;20184;-92
2023/05/10 00:04:42;;;;;;;3.45;2.83;;;13.70;94.60;;;;;;4977692;28;20204;-87
2023/05/10 00:07:08;;;;;;;4.82;2.67;;;13.70;94.50;;;;;;4988811;28;20528;-89
2023/05/10 00:09:33;;;;;;;5.68;2.95;;;13.60;94.60;;;;;;4957755;29;20272;-93
2023/05/10 00:11:59;;;;;;;4.43;2.90;;;13.60;94.80;;;;;;4970891;28;20209;-93
2023/05/10 00:14:25;;;;;;;3.90;3.08;;;13.50;94.90;;;;;;4992807;28;20526;-90
2023/05/10 00:16:50;;;;;;;4.22;2.30;;;13.50;95.10;;;;;;4984221;28;20690;-91
2023/05/10 00:19:16;;;;;;;4.20;2.83;;;13.50;95.10;;;;;;4992655;28;20271;-90
2023/05/10 00:21:42;;;;;;;3.70;2.70;;;13.50;95.20;;;;;;4991294;28;20513;-86
2023/05/10 00:24:07;;;;;;;5.53;3.10;;;13.40;95.40;;;;;;4992127;28;20208;-88
2023/05/10 00:26:33;;;;;;;3.67;2.80;;;13.40;95.50;;;;;;4989087;28;20276;-89
2023/05/10 00:29:07;;;;;;;10.57;2.92;;;13.30;95.80;;;;;;4972913;28;20227;-92
2023/05/10 00:31:33;;;;;;;4.00;2.65;;;13.30;95.60;;;;;;4967636;28;20208;-90
2023/05/10 00:33:59;;;;;;;5.80;2.83;;;13.30;95.60;;;;;;4973099;28;20208;-89
2023/05/10 00:36:24;;;;;;;4.97;2.97;;;13.30;95.90;;;;;;4975270;28;20243;-93
2023/05/10 00:38:51;;;;;;;3.58;2.78;;;13.30;95.80;;;;;;4977050;28;20177;-88
2023/05/10 00:41:17;;;;;;;3.30;2.70;;;13.20;96.00;;;;;;4975895;28;20289;-85
2023/05/10 00:43:43;;;;;;;4.03;2.90;;;13.20;96.00;;;;;;4974625;28;20671;-87
2023/05/10 00:46:08;;;;;;;4.22;2.53;;;13.20;96.10;;;;;;4974784;28;20192;-86
2023/05/10 00:48:36;;;;;;;4.75;3.13;;;13.20;96.00;;;;;;4991645;28;20650;-84
2023/05/10 00:51:03;;;;;;;7.20;3.10;;;13.20;96.20;;;;;;4990321;28;20535;-87
2023/05/10 00:53:31;;;;;;;7.75;3.08;;;13.20;96.40;;;;;;4975105;28;20172;-85
2023/05/10 00:55:57;;;;;;;7.78;2.70;;;13.10;96.40;;;;;;4991467;28;20275;-87
2023/05/10 00:58:28;;;;;;;6.45;2.70;;;13.10;96.60;;;;;;4975609;28;20623;-89
2023/05/10 01:00:56;;;;;;;3.90;2.58;;;13.10;96.60;;;;;;4975351;28;20184;-89
2023/05/10 01:03:22;;;;;;;3.47;2.67;;;13.00;96.60;;;;;;4975487;28;20267;-87
2023/05/10 01:05:48;;;;;;;3.45;2.55;;;13.00;96.60;;;;;;4991484;28;20279;-89
2023/05/10 01:08:14;;;;;;;5.13;2.67;;;13.00;96.70;;;;;;4974926;28;20188;-89
2023/05/10 01:10:40;;;;;;;7.45;2.95;;;13.00;96.70;;;;;;4972573;28;20185;-89
2023/05/10 01:13:06;;;;;;;3.92;2.53;;;13.00;96.90;;;;;;4955871;28;20180;-89
2023/05/10 01:15:32;;;;;;;4.45;2.50;;;13.00;97.00;;;;;;4957445;28;20178;-89
2023/05/10 01:17:59;;;;;;;6.53;2.97;;;12.90;97.10;;;;;;4975294;28;20187;-89
2023/05/10 01:20:28;;;;;;;8.30;3.03;;;13.00;97.30;;;;;;4975001;28;20220;-87
2023/05/10 01:23:28;;;;;;;5.18;2.72;;;12.90;97.70;;;;;;4974891;28;20220;-89
2023/05/10 01:26:15;;;;;;;6.05;2.67;;;12.80;97.30;;;;;;4974700;28;20527;-90
2023/05/10 01:29:16;;;;;;;6.07;2.80;;;12.80;97.90;;;;;;4975053;28;20181;-88
2023/05/10 01:32:14;;;;;;;3.92;3.00;;;12.80;97.60;;;;;;4974480;28;20180;-89
2023/05/10 01:35:14;;;;;;;3.67;2.70;;;12.80;97.70;;;;;;4974055;28;20655;-90
2023/05/10 01:38:02;;;;;;;8.88;2.95;;;12.80;97.80;;;;;;4974496;28;20228;-86
2023/05/10 01:41:16;;;;;;;4.57;2.80;;;12.70;98.00;;;;;;4972005;28;20193;-90
2023/05/10 01:43:57;;;;;;;5.07;2.72;;;12.70;98.00;;;;;;4955168;28;20216;-91
2023/05/10 01:46:37;;;;;;;5.85;2.53;;;12.70;98.20;;;;;;4976959;28;20188;-87
2023/05/10 01:49:08;;;;;;;4.70;2.80;;;12.70;98.20;;;;;;4974156;28;20180;-86
2023/05/10 01:52:09;;;;;;;6.47;3.03;;;12.70;98.30;;;;;;4975041;28;20275;-88
2023/05/10 01:54:38;;;;;;;3.15;2.67;;;12.60;98.50;;;;;;4975012;28;20643;-90
2023/05/10 01:57:08;;;;;;;4.32;3.00;;;12.60;98.70;;;;;;4991256;28;20188;-90
2023/05/10 01:59:36;;;;;;;3.00;2.70;;;12.50;98.70;;;;;;4974409;28;20188;-91
2023/05/10 02:02:04;;;;;;;4.85;2.67;;;12.50;98.80;;;;;;4990714;28;20189;-89
2023/05/10 02:04:31;;;;;;;3.20;2.88;;;12.50;99.20;;;;;;4974323;28;20212;-89
2023/05/10 02:06:57;;;;;;;6.68;2.80;;;12.50;98.90;;;;;;4989304;28;20186;-87
2023/05/10 02:09:25;;;;;;;3.88;2.83;;;12.60;99.10;;;;;;4970823;28;20634;-91
2023/05/10 02:11:51;;;;;;;5.20;2.65;;;12.50;99.10;;;;;;4955579;28;20188;-91
2023/05/10 02:14:19;;;;;;;5.47;2.70;;;12.50;99.20;;;;;;4958106;28;20189;-91
2023/05/10 02:16:47;;;;;;;5.93;3.00;;;12.50;99.40;;;;;;4986456;28;20243;-88
2023/05/10 02:19:14;;;;;;;3.83;2.67;;;12.50;99.60;;;;;;4974591;28;20188;-88
2023/05/10 02:21:42;;;;;;;7.88;2.90;;;12.40;99.90;;;;;;4975719;28;20195;-87
2023/05/10 02:24:10;;;;;;;2.92;2.63;;;12.40;99.80;;;;;;4975555;28;20314;-89
2023/05/10 02:26:37;;;;;;;3.40;2.90;;;12.40;99.90;;;;;;4968876;28;20188;-87
2023/05/10 02:29:06;;;;;;;3.70;3.25;;;12.40;99.90;;;;;;4955465;28;20635;-90
2023/05/10 02:31:33;;;;;;;3.28;2.97;;;12.40;99.90;;;;;;4974520;28;20184;-88
2023/05/10 02:34:00;;;;;;;5.05;3.00;;;12.40;99.90;;;;;;4974972;28;20191;-91
2023/05/10 02:36:27;;;;;;;6.30;3.15;;;12.40;99.90;;;;;;4989551;28;20307;-87
2023/05/10 02:39:02;;;;;;;3.85;2.88;;;12.40;99.90;;;;;;4975594;28;20561;-87
2023/05/10 02:41:30;;;;;;;5.03;2.72;;;12.40;99.90;;;;;;4974182;28;20581;-87
2023/05/10 02:44:01;;;;;;;3.55;2.92;;;12.40;99.90;;;;;;4973110;28;20214;-87
2023/05/10 02:46:26;;;;;;;6.57;3.17;;;12.40;99.90;;;;;;4969972;28;20186;-87
2023/05/10 02:48:52;;;;;;;3.78;2.78;;;12.40;99.90;;;;;;4956255;28;20189;-86
2023/05/10 02:51:21;;;;;;;4.68;3.10;;;12.40;99.90;;;;;;4990545;28;20177;-88
2023/05/10 02:53:50;;;;;;;5.05;2.80;;;12.40;99.90;;;;;;4989619;28;20661;-87
2023/05/10 02:56:30;;;;;;;3.80;2.80;;;12.40;99.90;;;;;;4975208;28;20663;-88
2023/05/10 02:58:56;;;;;;;3.67;2.92;;;12.30;99.90;;;;;;4973631;28;20188;-88
2023/05/10 03:01:21;;;;;;;4.38;3.20;;;12.30;99.90;;;;;;4974526;28;20177;-86
2023/05/10 03:03:47;;;;;;;4.30;3.15;;;12.30;99.90;;;;;;4977208;28;20208;-87
2023/05/10 03:06:13;;;;;;;4.70;3.20;;;12.30;99.90;;;;;;4977272;28;20180;-90
2023/05/10 03:08:39;;;;;;;6.63;2.92;;;12.30;99.90;;;;;;4976623;28;20189;-86
2023/05/10 03:11:45;;;;;;;3.45;2.92;;;12.20;99.90;;;;;;4993621;28;20188;-85
2023/05/10 03:14:25;;;;;;;5.97;3.00;;;12.20;99.90;;;;;;4938582;28;20542;-86
2023/05/10 03:16:55;;;;;;;6.43;2.80;;;12.20;99.90;;;;;;4960447;28;20176;-87
2023/05/10 03:19:31;;;;;;;8.00;3.58;;;12.20;99.90;;;;;;4978368;28;20253;-85
2023/05/10 03:22:03;;;;;;;4.32;3.30;;;12.20;99.90;;;;;;4976305;28;20184;-89
2023/05/10 03:24:31;;;;;;;3.97;2.70;;;12.20;99.90;;;;;;4977282;28;20324;-87
2023/05/10 03:27:02;;;;;;;5.45;3.00;;;12.20;99.90;;;;;;4977660;28;20189;-87
2023/05/10 03:29:36;;;;;;;4.63;3.17;;;12.20;99.90;;;;;;4993026;28;20189;-90
2023/05/10 03:32:02;;;;;;;6.18;2.85;;;12.10;99.90;;;;;;4976672;28;20204;-90
2023/05/10 03:34:31;;;;;;;5.25;3.25;;;12.10;99.90;;;;;;4993375;28;20300;-86
2023/05/10 03:36:56;;;;;;;4.53;2.90;;;12.10;99.90;;;;;;4986133;28;20294;-88
2023/05/10 03:39:22;;;;;;;5.05;3.20;;;12.10;99.90;;;;;;4976611;28;20178;-88
2023/05/10 03:41:49;;;;;;;5.07;3.20;;;12.10;99.90;;;;;;4976662;28;20604;-90
2023/05/10 03:44:15;;;;;;;6.20;3.00;;;12.10;99.90;;;;;;4973397;28;20235;-87
2023/05/10 03:46:40;;;;;;;4.85;3.10;;;12.10;99.90;;;;;;4957767;28;20220;-90
2023/05/10 03:49:06;;;;;;;5.95;3.05;;;12.10;99.90;;;;;;4958721;28;20224;-91
2023/05/10 03:51:33;;;;;;;4.53;3.38;;;12.10;99.90;;;;;;4962734;28;20262;-85
2023/05/10 03:53:58;;;;;;;6.15;3.20;;;12.10;99.90;;;;;;4977564;28;20682;-89
2023/05/10 03:56:24;;;;;;;6.80;3.15;;;12.10;99.90;;;;;;4973975;28;20188;-88
2023/05/10 03:58:50;;;;;;;6.45;2.95;;;12.10;99.90;;;;;;4961610;28;20199;-87
2023/05/10 04:01:15;;;;;;;4.57;3.38;;;12.10;99.90;;;;;;4977209;28;20175;-88
2023/05/10 04:03:41;;;;;;;4.55;3.38;;;12.10;99.90;;;;;;4973353;28;20209;-86
2023/05/10 04:06:08;;;;;;;5.30;3.10;;;12.20;99.90;;;;;;4957447;28;20185;-87
2023/05/10 04:08:34;;;;;;;4.03;3.00;;;12.10;99.90;;;;;;4990958;28;20184;-89
2023/05/10 04:11:12;;;;;;;5.22;3.33;;;12.20;99.90;;;;;;4976269;28;20343;-89
2023/05/10 04:13:38;;;;;;;5.28;3.10;;;12.10;99.90;;;;;;4975725;28;20274;-89
2023/05/10 04:16:04;;;;;;;4.93;3.30;;;12.20;99.90;;;;;;4977576;28;20320;-88
2023/05/10 04:18:31;;;;;;;8.63;3.17;;;12.20;99.90;;;;;;4976740;28;20266;-87
2023/05/10 04:21:03;;;;;;;5.47;3.22;;;12.20;99.90;;;;;;4976559;28;20177;-88
2023/05/10 04:23:29;;;;;;;4.75;3.45;;;12.20;99.90;;;;;;4991455;28;20192;-86
2023/05/10 04:26:01;;;;;;;4.78;3.00;;;12.20;99.90;;;;;;4976001;28;20183;-88
2023/05/10 04:28:27;;;;;;;3.60;3.17;;;12.30;99.90;;;;;;4990900;28;20227;-88
2023/05/10 04:31:03;;;;;;;5.35;3.75;;;12.30;99.90;;;;;;4974155;28;20212;-89
2023/05/10 04:33:29;;;;;;;6.25;3.60;;;12.30;99.90;;;;;;4980252;28;20188;-88
2023/05/10 04:35:55;;;;;;;5.38;3.00;;;12.30;99.90;;;;;;4975870;28;20225;-88
2023/05/10 04:38:20;;;;;;;3.72;3.15;;;12.40;99.90;;;;;;4990896;28;20275;-89
2023/05/10 04:40:47;;;;;;;3.60;3.00;;;12.50;99.90;;;;;;4973096;28;20205;-87
2023/05/10 04:43:13;;;;;;;3.78;3.10;;;12.50;99.90;;;;;;4967596;28;20219;-86
2023/05/10 04:45:39;;;;;;;4.50;3.17;;;12.60;99.90;;;;;;4977170;28;20236;-89
2023/05/10 04:48:05;;;;;;;4.47;3.30;;;12.60;99.90;;;;;;4977858;28;20208;-87
2023/05/10 04:50:32;;;;;;;5.30;3.30;;;12.70;99.90;;;;;;4961342;28;20181;-84
2023/05/10 04:52:58;;;;;;;5.63;3.58;;;12.70;99.90;;;;;;4955937;28;20181;-88
2023/05/10 04:55:23;;;;;;;4.40;3.53;;;12.80;99.90;;;;;;4974658;28;20195;-87
2023/05/10 04:57:49;;;;;;;3.65;3.22;;;12.80;99.90;;;;;;4976841;28;20183;-88
2023/05/10 05:00:15;;;;;;;5.60;3.58;;;12.80;99.90;;;;;;4991190;28;20192;-88
2023/05/10 05:02:46;;;;;;;6.30;3.40;;;12.80;99.90;;;;;;4975457;28;20196;-88
2023/05/10 05:05:13;;;;;;;7.82;3.30;;;12.90;99.90;;;;;;4975190;28;20212;-89
2023/05/10 05:07:38;;;;;;;6.75;3.40;;;12.90;99.90;;;;;;4975503;28;20187;-88
2023/05/10 05:10:06;;;;;;;5.25;3.08;;;12.90;99.90;;;;;;4976513;28;20192;-89
2023/05/10 05:12:32;;;;;;;4.35;3.30;;;13.00;99.90;;;;;;4974941;28;20188;-86
2023/05/10 05:14:58;;;;;;;6.07;3.83;;;13.00;99.90;;;;;;4969084;28;20196;-87
2023/05/10 05:17:23;;;;;;;6.00;3.55;;;13.00;99.90;;;;;;4959354;28;20188;-87
2023/05/10 05:19:49;;;;;;;4.65;3.30;;;13.00;99.90;;;;;;4974727;28;20195;-87
2023/05/10 05:22:16;;;;;;;6.55;3.03;;;13.10;99.90;;;;;;4990376;28;20176;-86
2023/05/10 05:24:42;;;;;;;5.75;3.38;;;13.10;99.90;;;;;;4990896;28;20216;-88
2023/05/10 05:27:07;;;;;;;6.90;3.40;;;13.00;99.90;;;;;;4991469;28;20594;-89
2023/05/10 05:29:33;;;;;;;4.18;2.90;;;13.00;99.90;;;;;;4958906;28;20181;-86
2023/05/10 05:32:01;;;;;;;7.97;3.65;;;13.00;99.90;;;;;;4991121;28;20181;-86
2023/05/10 05:34:27;;;;;;;4.22;3.28;;;13.00;99.90;;;;;;4958703;28;20197;-89
2023/05/10 05:36:53;;;;;;;4.70;3.30;;;13.00;99.90;;;;;;4964105;28;20225;-86
2023/05/10 05:39:19;;;;;;;5.35;3.60;;;12.90;99.90;;;;;;4973375;28;20283;-86
2023/05/10 05:41:47;;;;;;;5.55;3.72;;;12.90;99.90;;;;;;4972925;28;20234;-84
2023/05/10 05:44:13;;;;;;;9.07;4.18;;;12.90;99.90;;;;;;4966778;28;20217;-85
2023/05/10 05:46:38;;;;;;;9.45;4.03;;;12.80;99.90;;;;;;4960031;28;20203;-83
2023/05/10 05:49:04;;;;;;;6.57;3.47;;;12.80;99.90;;;;;;4975592;28;20188;-87
2023/05/10 05:51:30;;;;;;;5.70;3.50;;;12.70;99.90;;;;;;4973554;28;20195;-87
2023/05/10 05:53:56;;;;;;;5.32;3.15;;;12.70;99.90;;;;;;4972723;28;20586;-87
2023/05/10 05:56:24;;;;;;;6.28;3.60;;;12.70;99.90;;;;;;4974904;28;20184;-87
2023/05/10 05:58:53;;;;;;;4.28;3.45;;;12.70;99.90;;;;;;4973580;28;20185;-85
2023/05/10 06:01:19;;;;;;;4.97;3.67;;;12.70;99.90;;;;;;4958902;28;20634;-85
2023/05/10 06:03:50;;;;;;;4.22;3.33;;;12.70;99.90;;;;;;4983410;28;20179;-86
2023/05/10 06:06:16;;;;;;;11.05;3.78;;;12.70;99.90;;;;;;4977086;28;20262;-85
2023/05/10 06:08:41;;;;;;;6.03;3.67;;;12.70;99.90;;;;;;4968812;28;20187;-87
2023/05/10 06:11:07;;;;;;;6.45;4.03;;;12.70;99.90;;;;;;4974457;28;20200;-83
2023/05/10 06:13:40;;;;;;;7.10;3.45;;;12.70;99.90;;;;;;4985749;28;20603;-90
2023/05/10 06:16:09;;;;;;;5.95;3.65;;;12.80;99.90;;;;;;4973524;28;20204;-87
2023/05/10 06:18:35;;;;;;;5.88;3.47;;;12.90;99.90;;;;;;4972750;28;20190;-87
2023/05/10 06:21:00;;;;;;;5.50;3.92;;;13.00;99.90;;;;;;4974805;28;20623;-87
2023/05/10 06:23:27;;;;;;;5.30;3.83;;;13.10;99.90;;;;;;4971060;28;20692;-89
2023/05/10 06:25:53;;;;;;;5.32;3.72;;;13.20;99.90;;;;;;4974802;28;20252;-89
2023/05/10 06:28:19;;;;;;;10.98;4.03;;;13.20;99.90;;;;;;4981648;28;20560;-88
2023/05/10 06:30:44;;;;;;;4.25;3.65;;;13.30;99.90;;;;;;4993767;28;20176;-91
2023/05/10 06:33:10;;;;;;;10.75;4.20;;;13.30;99.90;;;;;;4957921;28;20174;-87
2023/05/10 06:35:36;;;;;;;7.47;3.60;;;13.40;99.90;;;;;;4991823;28;20180;-86
2023/05/10 06:38:02;;;;;;;5.75;3.75;;;13.30;99.90;;;;;;4969029;28;20230;-85
2023/05/10 06:40:28;;;;;;;5.03;3.70;;;13.40;99.90;;;;;;4986601;28;20219;-88
2023/05/10 06:42:54;;;;;;;3.92;3.30;;;13.50;99.90;;;;;;4994484;28;20188;-86
2023/05/10 06:45:20;;;;;;;5.50;3.35;;;13.50;99.90;;;;;;4976241;28;20216;-84
2023/05/10 06:47:46;;;;;;;4.60;3.47;;;13.50;99.90;;;;;;4982797;28;20359;-86
2023/05/10 06:50:12;;;;;;;5.25;3.33;;;13.60;99.90;;;;;;4997326;28;20532;-83
2023/05/10 06:52:57;;;;;;;4.57;3.70;;;13.70;99.90;;;;;;4991135;28;20297;-85
2023/05/10 06:55:23;;;;;;;8.15;3.85;;;13.80;99.90;;;;;;4967012;28;20185;-87
2023/05/10 06:57:50;;;;;;;10.40;3.97;;;13.80;99.90;;;;;;4997795;28;20481;-85
2023/05/10 07:00:16;;;;;;;7.13;3.55;;;13.90;99.90;;;;;;4986107;28;20184;-85
2023/05/10 07:02:43;;;;;;;7.35;3.75;;;13.90;99.90;;;;;;4957701;28;20173;-87
2023/05/10 07:05:09;;;;;;;7.10;3.60;;;14.00;99.90;;;;;;4968641;28;20212;-86
2023/05/10 07:07:35;;;;;;;6.38;3.85;;;14.00;99.90;;;;;;4976757;28;20196;-88
2023/05/10 07:10:01;;;;;;;6.65;3.70;;;14.10;99.90;;;;;;4991072;28;20518;-85
2023/05/10 07:12:27;;;;;;;8.45;3.88;;;14.20;99.90;;;;;;4997081;28;20172;-85
2023/05/10 07:14:52;;;;;;;6.60;3.38;;;14.30;99.90;;;;;;4986272;28;20194;-85
2023/05/10 07:17:18;;;;;;;4.68;3.72;;;14.30;99.90;;;;;;4992008;28;20184;-85
2023/05/10 07:19:44;;;;;;;5.90;3.58;;;14.40;99.90;;;;;;4988269;28;20296;-85
2023/05/10 07:22:10;;;;;;;6.78;3.50;;;14.40;99.90;;;;;;4977508;28;20177;-86
2023/05/10 07:24:42;;;;;;;4.25;3.58;;;14.50;99.90;;;;;;4989890;28;20240;-86
2023/05/10 07:27:07;;;;;;;8.38;4.00;;;14.60;99.90;;;;;;4976150;28;20184;-86
2023/05/10 07:29:33;;;;;;;7.03;3.88;;;14.80;99.90;;;;;;4991075;28;20279;-86
2023/05/10 07:31:59;;;;;;;9.30;4.10;;;14.90;99.90;;;;;;4976269;28;20231;-85
2023/05/10 07:34:25;;;;;;;4.85;3.53;;;15.00;99.90;;;;;;4973787;28;20583;-84
2023/05/10 07:36:51;;;;;;;5.82;4.00;;;15.10;99.90;;;;;;4964179;28;20561;-84
2023/05/10 07:39:17;;;;;;;5.78;4.28;;;15.00;99.90;;;;;;4994477;28;20733;-83
2023/05/10 07:41:43;;;;;;;4.68;3.90;;;14.90;99.90;;;;;;4975895;28;20227;-84
2023/05/10 07:44:10;;;;;;;5.63;4.32;;;14.90;99.90;;;;;;4981908;28;20212;-84
2023/05/10 07:46:35;;;;;;;7.35;3.88;;;14.90;99.90;;;;;;4958786;28;20181;-83
2023/05/10 07:49:01;;;;;;;7.55;4.50;;;14.90;99.90;;;;;;4982658;28;20619;-83
2023/05/10 07:51:30;;;;;;;10.98;4.38;;;14.80;99.90;;;;;;4977248;28;20706;-84
2023/05/10 07:53:57;;;;;;;6.25;4.57;;;14.70;99.90;;;;;;4984396;28;20250;-85
2023/05/10 07:56:25;;;;;;;6.10;4.15;;;14.60;99.90;;;;;;4995563;28;20218;-85
2023/05/10 07:58:51;;;;;;;6.15;4.10;;;14.60;99.90;;;;;;4979526;28;20185;-84
2023/05/10 08:01:17;;;;;;;7.82;4.65;;;14.40;99.90;;;;;;4990033;28;20184;-83
2023/05/10 08:03:43;;;;;;;6.13;4.63;;;14.30;99.90;;;;;;4975940;28;20183;-82
2023/05/10 08:06:09;;;;;;;7.55;4.78;;;14.20;99.90;;;;;;4993211;28;20176;-84
2023/05/10 08:08:34;;;;;;;6.28;4.45;;;14.30;99.90;;;;;;4976506;28;20184;-84
2023/05/10 08:11:00;;;;;;;9.00;5.70;;;14.30;99.90;;;;;;4976305;28;20177;-83
2023/05/10 08:13:26;;;;;;;6.72;4.55;;;14.30;99.90;;;;;;4971186;28;20180;-83
2023/05/10 08:15:53;;;;;;;5.63;4.63;;;14.40;99.90;;;;;;4972079;28;20209;-89
2023/05/10 08:18:19;;;;;;;7.35;5.25;;;14.50;99.90;;;;;;4975010;28;20181;-86
2023/05/10 08:20:45;;;;;;;5.63;4.80;;;14.40;99.90;;;;;;4976680;28;20187;-86
2023/05/10 08:23:13;;;;;;;6.43;5.03;;;14.50;99.90;;;;;;4990573;28;20180;-83
2023/05/10 08:25:40;;;;;;;8.48;4.65;;;14.40;99.90;;;;;;4977933;28;20263;-84
2023/05/10 08:28:05;;;;;;;8.57;5.35;;;14.50;99.90;;;;;;4992079;28;20207;-84
2023/05/10 08:30:31;;;;;;;7.68;5.25;;;14.50;99.90;;;;;;4976156;28;20215;-85
2023/05/10 08:32:57;;;;;;;8.50;5.55;;;14.50;99.90;;;;;;4964954;28;20181;-85
2023/05/10 08:35:23;;;;;;;8.93;5.97;;;14.50;99.90;;;;;;4973813;28;20193;-84
2023/05/10 08:37:48;;;;;;;6.93;5.70;;;14.40;99.90;;;;;;4977241;28;20231;-82
2023/05/10 08:40:15;;;;;;;6.50;5.70;;;14.30;99.90;;;;;;4973497;28;20611;-83
2023/05/10 08:42:47;;;;;;;6.40;5.38;;;14.30;99.90;;;;;;4985331;28;20246;-85
2023/05/10 08:45:17;;;;;;;6.15;5.50;;;14.10;99.90;;;;;;4991667;28;20215;-81
2023/05/10 08:47:42;;;;;;;7.88;5.70;;;14.00;99.90;;;;;;4979030;28;20189;-85
2023/05/10 08:50:09;;;;;;;6.82;5.97;;;13.90;99.90;;;;;;4979885;28;20180;-84
2023/05/10 08:52:40;;;;;;;9.75;6.50;;;13.90;99.90;;;;;;4979573;28;20215;-83
2023/05/10 08:55:06;;;;;;;12.18;6.63;;;13.80;99.90;;;;;;4974779;28;20211;-84
2023/05/10 08:57:32;;;;;;;10.45;6.07;;;13.70;99.90;;;;;;4990661;28;20220;-85
2023/05/10 09:00:00;;;;;;;9.02;6.25;;;13.70;99.90;;;;;;4978317;28;20188;-84
2023/05/10 09:02:26;;;;;;;8.55;5.90;;;13.60;99.90;;;;;;4973935;28;20211;-83
2023/05/10 09:04:52;;;;;;;10.65;6.35;;;13.60;99.90;;;;;;4986141;28;20240;-84
2023/05/10 09:07:19;;;;;;;10.70;6.25;;;13.50;99.90;;;;;;4994938;28;20172;-86
2023/05/10 09:09:46;;;;;;;8.88;6.78;;;13.50;99.90;;;;;;4981800;28;20193;-87
2023/05/10 09:12:15;;;;;;;8.35;6.50;;;13.40;99.90;;;;;;4975354;28;20181;-88
2023/05/10 09:14:44;;;;;;;8.27;6.50;;;13.50;99.90;;;;;;4987631;28;20212;-89
2023/05/10 09:17:10;;;;;;;8.48;6.78;;;13.50;99.90;;;;;;4974711;28;20188;-90
2023/05/10 09:19:36;;;;;;;11.32;7.07;;;13.50;99.90;;;;;;4981900;28;20216;-90
2023/05/10 09:22:05;;;;;;;9.07;7.03;;;13.50;99.90;;;;;;4971082;28;20185;-90
2023/05/10 09:24:47;;;;;;;10.30;7.10;;;13.50;99.90;;;;;;4973946;28;20359;-91
2023/05/10 09:27:13;;;;;;;9.45;6.50;;;13.50;99.90;;;;;;4989304;28;20195;-91
2023/05/10 09:29:40;;;;;;;7.97;6.65;;;13.50;99.90;;;;;;4988992;28;20646;-93
2023/05/10 09:32:05;;;;;;;8.55;7.13;;;13.50;99.90;;;;;;4991197;28;20180;-92
2023/05/10 09:34:33;;;;;;;7.88;6.60;;;13.60;99.90;;;;;;4979947;28;20181;-92
2023/05/10 09:37:01;;;;;;;9.43;7.20;;;13.60;99.90;;;;;;4974192;28;20238;-92
2023/05/10 09:39:34;;;;;;;8.27;7.15;;;13.70;99.90;;;;;;4987558;28;20179;-90
2023/05/10 09:42:05;;;;;;;10.38;7.57;;;13.70;99.90;;;;;;4975673;28;20184;-91
2023/05/10 09:44:35;;;;;;;8.25;6.85;;;13.80;99.90;;;;;;4986209;28;20280;-94
2023/05/10 09:47:06;;;;;;;11.27;7.30;;;13.90;99.90;;;;;;4955459;28;20177;-93
2023/05/10 09:49:32;;;;;;;7.95;7.15;;;14.00;99.90;;;;;;4962466;28;20185;-91
2023/05/10 09:52:05;;;;;;;8.38;7.13;;;14.00;99.90;;;;;;4980229;28;20188;-92
2023/05/10 09:54:31;;;;;;;7.75;6.75;;;14.10;99.90;;;;;;4976003;28;20662;-93
2023/05/10 09:56:57;;;;;;;9.15;7.80;;;14.10;99.90;;;;;;4974799;28;20242;-91
2023/05/10 09:59:27;;;;;;;13.13;7.18;;;14.20;99.90;;;;;;4990412;28;20184;-93
2023/05/10 10:01:55;;;;;;;11.77;8.10;;;14.20;99.90;;;;;;4972748;28;20647;-90
2023/05/10 10:04:21;;;;;;;10.23;7.90;;;14.30;99.90;;;;;;4977141;28;20262;-92
2023/05/10 10:06:57;;;;;;;9.15;7.80;;;14.30;99.90;;;;;;5002190;28;20184;-93
2023/05/10 10:09:24;;;;;;;9.27;8.07;;;14.30;99.90;;;;;;4992414;28;20172;-93
2023/05/10 10:11:50;;;;;;;10.20;7.88;;;14.30;99.90;;;;;;4993744;28;20180;-93
2023/05/10 10:14:18;;;;;;;11.77;7.72;;;14.40;99.90;;;;;;4979424;28;20212;-93
2023/05/10 10:16:48;;;;;;;11.70;7.93;;;14.30;99.90;;;;;;4978334;28;20184;-90
2023/05/10 10:19:15;;;;;;;8.50;7.45;;;14.40;99.90;;;;;;4977067;28;20185;-93
2023/05/10 10:21:41;;;;;;;8.27;7.43;;;14.40;99.90;;;;;;4977730;28;20243;-93
2023/05/10 10:24:07;;;;;;;9.60;7.15;;;14.30;99.90;;;;;;4984422;28;20212;-94
2023/05/10 10:26:34;;;;;;;10.25;7.88;;;14.40;99.90;;;;;;4985613;28;20192;-86
2023/05/10 10:29:27;;;;;;;9.90;7.63;;;14.40;99.90;;;;;;4991896;28;20164;-89
2023/05/10 10:32:11;;;;;;;9.48;7.35;;;14.40;99.90;;;;;;4989936;28;20184;-94
2023/05/10 10:34:39;;;;;;;8.30;6.82;;;14.40;99.90;;;;;;4978909;28;20578;-94
2023/05/10 10:37:06;;;;;;;8.05;6.47;;;14.50;99.90;;;;;;4977742;28;20232;-96
2023/05/10 10:39:32;;;;;;;5.60;5.05;;;14.50;99.90;;;;;;4980177;28;20199;-90
2023/05/10 10:41:59;;;;;;;4.85;4.32;;;14.50;99.90;;;;;;4977149;28;20216;-92
2023/05/10 10:44:31;;;;;;;5.00;4.50;;;14.50;99.90;;;;;;4994409;28;20556;-88
2023/05/10 10:47:11;;;;;;;4.60;4.10;;;14.50;99.90;;;;;;4994096;28;20256;-91
2023/05/10 10:49:40;;;;;;;5.05;4.15;;;14.50;99.90;;;;;;4979353;28;20228;-91
2023/05/10 10:52:29;;;;;;;4.00;3.60;;;14.60;99.90;;;;;;4977925;28;20195;-87
2023/05/10 10:55:06;;;;;;;4.43;3.20;;;14.70;99.90;;;;;;4974364;28;20380;-89
2023/05/10 10:57:41;;;;;;;2.55;2.10;;;14.70;99.90;;;;;;4959918;28;20166;-88
2023/05/10 11:00:23;;;;;;;2.30;2.10;;;14.70;99.90;;;;;;4986967;28;20531;-88
2023/05/10 11:03:10;;;;;;;2.63;2.03;;;14.80;99.90;;;;;;4969084;28;20263;-89
2023/05/10 11:05:45;;;;;;;2.05;1.85;;;14.90;99.90;;;;;;4976980;28;20223;-92
2023/05/10 11:08:45;;;;;;;2.00;1.80;;;15.00;99.90;;;;;;4977424;28;20263;-94
2023/05/10 11:11:14;;;;;;;1.38;1.27;;;15.00;99.90;;;;;;4992294;28;20284;-88
2023/05/10 11:13:48;;;;;;;2.33;1.10;;;15.00;99.90;;;;;;4988398;28;20192;-89
2023/05/10 11:16:20;;;;;;;1.35;1.25;;;15.10;99.90;;;;;;4993674;28;20180;-87
2023/05/10 11:19:03;;;;;;;3.42;1.30;;;15.00;99.90;;;;;;4976258;28;20180;-87
2023/05/10 11:21:35;;;;;;;2.10;1.60;;;15.10;99.90;;;;;;4967297;28;20202;-90
2023/05/10 11:24:05;;;;;;;1.45;1.30;;;15.10;99.90;;;;;;4991741;28;20646;-90
2023/05/10 11:26:34;;;;;;;1.30;1.20;;;15.00;99.90;;;;;;4993996;28;20676;-91
2023/05/10 11:29:01;;;;;;;3.35;1.30;;;14.80;99.90;;;;;;4975383;28;20185;-90
2023/05/10 11:31:27;;;;;;;1.90;1.30;;;14.80;99.90;;;;;;4978652;28;20208;-91
2023/05/10 11:33:55;;;;;;;3.08;1.30;;;14.80;99.90;;;;;;4976602;28;20185;-88
2023/05/10 11:36:30;;;;;;;1.25;1.00;;;14.70;99.90;;;;;;4977060;28;20223;-89
2023/05/10 11:38:57;;;;;;;2.35;0.82;;;14.70;99.90;;;;;;4978729;28;20203;-91
2023/05/10 11:41:24;;;;;;;0.93;0.73;;;14.70;99.90;;;;;;4977793;28;20189;-92
2023/05/10 11:43:52;;;;;;;1.45;0.90;;;14.60;99.90;;;;;;4978672;28;20191;-89
2023/05/10 11:46:23;;;;;;;2.03;1.20;;;14.50;99.90;;;;;;4986376;28;20203;-93
2023/05/10 11:48:53;;;;;;;2.25;1.33;;;14.40;99.90;;;;;;5001168;28;20215;-93
2023/05/10 11:51:23;;;;;;;2.67;1.30;;;14.30;99.90;;;;;;4998948;28;20521;-86
2023/05/10 11:53:52;;;;;;;1.42;1.08;;;14.20;99.90;;;;;;4980681;28;20252;-90
2023/05/10 11:56:18;;;;;;;1.00;0.90;;;14.20;99.90;;;;;;4989862;28;20203;-96
2023/05/10 11:58:57;;;;;;;1.65;0.70;;;14.20;99.90;;;;;;4983845;28;20163;-96
2023/05/10 12:01:24;;;;;;;1.02;0.80;;;14.20;99.90;;;;;;4981588;28;20264;-92
2023/05/10 12:03:51;;;;;;;0.93;0.80;;;14.20;99.90;;;;;;4977226;28;20231;-95
2023/05/10 12:06:19;;;;;;;2.00;0.90;;;14.20;99.90;;;;;;4993774;28;20196;-96
2023/05/10 12:08:48;;;;;;;2.65;1.00;;;14.30;99.90;;;;;;4977814;28;20176;-94
2023/05/10 12:11:17;;;;;;;1.27;0.98;;;14.40;99.90;;;;;;4993995;28;20180;-94
2023/05/10 12:13:47;;;;;;;1.30;0.90;;;14.40;99.90;;;;;;4997247;28;20235;-92
2023/05/10 12:16:23;;;;;;;1.15;0.90;;;14.40;99.90;;;;;;4977524;28;20280;-88
2023/05/10 12:18:55;;;;;;;1.80;1.30;;;14.40;99.90;;;;;;4978527;28;20255;-96
2023/05/10 12:21:21;;;;;;;1.40;1.05;;;14.50;99.90;;;;;;4976623;28;20176;-95
2023/05/10 12:24:09;;;;;;;1.85;1.50;;;14.60;99.90;;;;;;4975575;28;20274;-94
2023/05/10 12:26:35;;;;;;;2.17;1.75;;;14.70;99.90;;;;;;4975353;28;20231;-94
2023/05/10 12:29:15;;;;;;;2.00;1.90;;;14.90;99.90;;;;;;4976877;28;20247;-93
2023/05/10 12:31:58;;;;;;;1.98;1.77;;;15.00;99.90;;;;;;4977267;28;20192;-93
2023/05/10 12:34:35;;;;;;;2.00;1.80;;;15.10;99.90;;;;;;4976681;28;20624;-86
2023/05/10 12:37:02;;;;;;;2.40;2.20;;;15.20;99.90;;;;;;4974909;28;20235;-85
2023/05/10 12:39:47;;;;;;;2.60;2.40;;;15.30;99.90;;;;;;4977732;28;20234;-89
2023/05/10 12:42:13;;;;;;;2.63;2.42;;;15.30;99.90;;;;;;4972583;28;20188;-93
2023/05/10 12:44:39;;;;;;;4.32;2.88;;;15.30;99.90;;;;;;4972856;28;20339;-87
2023/05/10 12:47:05;;;;;;;3.05;2.75;;;15.30;99.90;;;;;;4975808;28;20185;-92
2023/05/10 12:49:32;;;;;;;2.97;2.67;;;15.40;99.90;;;;;;4975403;28;20259;-94
2023/05/10 12:52:04;;;;;;;2.95;2.70;;;15.40;99.90;;;;;;4972736;28;20176;-95
2023/05/10 12:54:30;;;;;;;3.47;2.60;;;15.30;99.90;;;;;;4965576;28;20192;-95
2023/05/10 12:56:56;;;;;;;2.85;2.65;;;15.50;99.90;;;;;;4976004;28;20184;-96